createdAt,value
2018-10-12T00:00:32.868Z,17.68
2018-10-12T00:01:32.799Z,17.72
2018-10-12T00:02:32.720Z,17.68
2018-10-12T00:03:32.646Z,17.71
2018-10-12T00:04:32.580Z,17.71
2018-10-12T00:05:32.505Z,17.68
2018-10-12T00:06:32.433Z,17.68
2018-10-12T00:07:32.356Z,17.63
2018-10-12T00:08:32.284Z,17.70
2018-10-12T00:09:32.212Z,17.66
2018-10-12T00:10:32.140Z,17.64
2018-10-12T00:11:32.069Z,17.66
2018-10-12T00:12:31.995Z,17.64
2018-10-12T00:13:31.920Z,17.66
2018-10-12T00:14:31.850Z,17.64
2018-10-12T00:15:31.777Z,17.70
2018-10-12T00:16:31.704Z,17.68
2018-10-12T00:17:31.630Z,17.70
2018-10-12T00:18:31.558Z,17.68
2018-10-12T00:19:31.487Z,17.66
2018-10-12T00:20:31.416Z,17.71
2018-10-12T00:21:31.339Z,17.72
2018-10-12T00:22:31.268Z,17.70
2018-10-12T00:23:31.194Z,17.71
2018-10-12T00:24:31.123Z,17.72
2018-10-12T00:25:31.051Z,17.63
2018-10-12T00:26:30.978Z,17.59
2018-10-12T00:27:30.903Z,17.71
2018-10-12T00:28:30.831Z,17.71
2018-10-12T00:29:30.759Z,17.66
2018-10-12T00:30:30.726Z,17.72
2018-10-12T00:31:30.612Z,17.70
2018-10-12T00:32:30.540Z,17.77
2018-10-12T00:33:30.467Z,17.72
2018-10-12T00:34:30.396Z,17.71
2018-10-12T00:35:30.321Z,17.70
2018-10-12T00:36:30.251Z,17.64
2018-10-12T00:37:30.180Z,17.68
2018-10-12T00:38:30.103Z,17.68
2018-10-12T00:39:30.032Z,17.66
2018-10-12T00:40:29.957Z,17.59
2018-10-12T00:41:29.883Z,17.64
2018-10-12T00:42:29.812Z,17.52
2018-10-12T00:43:29.739Z,17.56
2018-10-12T00:44:29.666Z,17.59
2018-10-12T00:45:29.594Z,17.55
2018-10-12T00:46:29.524Z,17.66
2018-10-12T00:47:29.448Z,17.59
2018-10-12T00:48:29.377Z,17.58
2018-10-12T00:49:29.302Z,17.59
2018-10-12T00:50:29.230Z,17.55
2018-10-12T00:51:29.159Z,17.48
2018-10-12T00:52:29.084Z,17.48
2018-10-12T00:53:29.011Z,17.54
2018-10-12T00:54:28.939Z,17.46
2018-10-12T00:55:28.866Z,17.52
2018-10-12T00:56:28.795Z,17.44
2018-10-12T00:57:28.729Z,17.51
2018-10-12T00:58:28.648Z,17.46
2018-10-12T00:59:28.572Z,17.41
2018-10-12T01:00:28.506Z,17.31
2018-10-12T01:01:28.429Z,17.36
2018-10-12T01:02:28.356Z,17.31
2018-10-12T01:03:28.284Z,17.36
2018-10-12T01:04:28.211Z,17.26
2018-10-12T01:05:28.145Z,17.19
2018-10-12T01:06:28.110Z,17.33
2018-10-12T01:07:27.994Z,17.26
2018-10-12T01:08:27.920Z,17.26
2018-10-12T01:09:27.848Z,17.26
2018-10-12T01:10:27.773Z,17.26
2018-10-12T01:11:27.704Z,17.16
2018-10-12T01:12:27.627Z,17.16
2018-10-12T01:13:27.558Z,17.16
2018-10-12T01:14:27.483Z,17.15
2018-10-12T01:15:27.410Z,17.15
2018-10-12T01:16:27.338Z,17.06
2018-10-12T01:17:27.264Z,17.06
2018-10-12T01:18:27.191Z,16.98
2018-10-12T01:19:27.117Z,17.08
2018-10-12T01:20:27.045Z,17.00
2018-10-12T01:21:26.976Z,17.00
2018-10-12T01:22:26.898Z,17.04
2018-10-12T01:23:26.824Z,16.97
2018-10-12T01:24:26.751Z,16.97
2018-10-12T01:25:26.684Z,16.94
2018-10-12T01:26:26.606Z,16.91
2018-10-12T01:27:26.533Z,16.88
2018-10-12T01:28:26.463Z,16.82
2018-10-12T01:29:26.388Z,16.89
2018-10-12T01:30:26.314Z,16.94
2018-10-12T01:31:26.242Z,16.83
2018-10-12T01:32:26.172Z,16.91
2018-10-12T01:33:26.095Z,16.94
2018-10-12T01:34:26.025Z,16.81
2018-10-12T01:35:25.950Z,16.85
2018-10-12T01:36:25.876Z,16.76
2018-10-12T01:37:25.802Z,16.82
2018-10-12T01:38:25.730Z,16.85
2018-10-12T01:39:25.657Z,16.82
2018-10-12T01:40:25.581Z,16.75
2018-10-12T01:41:25.511Z,16.68
2018-10-12T01:42:25.437Z,16.73
2018-10-12T01:43:25.366Z,16.73
2018-10-12T01:44:25.292Z,16.68
2018-10-12T01:45:25.219Z,16.64
2018-10-12T01:46:25.144Z,16.75
2018-10-12T01:47:25.070Z,16.73
2018-10-12T01:48:25.000Z,16.70
2018-10-12T01:49:24.925Z,16.67
2018-10-12T01:50:24.853Z,16.78
2018-10-12T01:51:24.778Z,16.78
2018-10-12T01:52:24.709Z,16.76
2018-10-12T01:53:24.633Z,16.79
2018-10-12T01:54:24.560Z,16.71
2018-10-12T01:55:24.488Z,16.70
2018-10-12T01:56:24.412Z,16.78
2018-10-12T01:57:24.340Z,16.85
2018-10-12T01:58:24.267Z,16.85
2018-10-12T01:59:24.195Z,16.75
2018-10-12T02:00:24.121Z,16.82
2018-10-12T02:01:24.052Z,16.81
2018-10-12T02:02:23.973Z,16.91
2018-10-12T02:03:23.904Z,16.88
2018-10-12T02:04:23.829Z,16.89
2018-10-12T02:05:23.752Z,16.89
2018-10-12T02:06:23.680Z,16.85
2018-10-12T02:07:23.606Z,16.91
2018-10-12T02:08:23.537Z,16.88
2018-10-12T02:09:23.462Z,16.89
2018-10-12T02:10:23.388Z,16.82
2018-10-12T02:11:23.311Z,16.81
2018-10-12T02:12:23.244Z,16.81
2018-10-12T02:13:23.168Z,16.82
2018-10-12T02:14:23.095Z,16.81
2018-10-12T02:15:23.025Z,16.89
2018-10-12T02:16:22.945Z,16.89
2018-10-12T02:17:22.875Z,16.86
2018-10-12T02:18:22.801Z,16.86
2018-10-12T02:19:22.727Z,16.91
2018-10-12T02:20:22.653Z,16.76
2018-10-12T02:21:22.586Z,16.82
2018-10-12T02:22:22.508Z,16.83
2018-10-12T02:23:22.439Z,16.79
2018-10-12T02:24:22.361Z,16.76
2018-10-12T02:25:22.288Z,16.81
2018-10-12T02:26:22.217Z,16.78
2018-10-12T02:27:22.141Z,16.81
2018-10-12T02:28:22.070Z,16.79
2018-10-12T02:29:21.996Z,16.85
2018-10-12T02:30:21.926Z,16.78
2018-10-12T02:31:21.849Z,16.81
2018-10-12T02:32:21.774Z,16.82
2018-10-12T02:33:21.703Z,16.82
2018-10-12T02:34:21.630Z,16.78
2018-10-12T02:35:21.559Z,16.78
2018-10-12T02:36:21.483Z,16.83
2018-10-12T02:37:21.412Z,16.82
2018-10-12T02:38:21.336Z,16.79
2018-10-12T02:39:21.267Z,16.81
2018-10-12T02:40:21.192Z,16.82
2018-10-12T02:41:21.117Z,16.83
2018-10-12T02:42:21.048Z,16.82
2018-10-12T02:43:20.973Z,16.93
2018-10-12T02:44:20.897Z,16.89
2018-10-12T02:45:20.825Z,16.83
2018-10-12T02:46:20.754Z,16.79
2018-10-12T02:47:20.679Z,16.79
2018-10-12T02:48:20.604Z,16.86
2018-10-12T02:49:20.533Z,16.86
2018-10-12T02:50:20.457Z,16.76
2018-10-12T02:51:20.392Z,16.82
2018-10-12T02:52:20.316Z,16.83
2018-10-12T02:53:20.241Z,16.82
2018-10-12T02:54:20.165Z,16.81
2018-10-12T02:55:20.092Z,16.81
2018-10-12T02:56:20.021Z,16.78
2018-10-12T02:57:19.947Z,16.86
2018-10-12T02:58:19.875Z,16.78
2018-10-12T02:59:19.800Z,16.76
2018-10-12T03:00:19.730Z,16.79
2018-10-12T03:01:19.655Z,16.82
2018-10-12T03:02:19.579Z,16.70
2018-10-12T03:03:19.507Z,16.71
2018-10-12T03:04:19.434Z,16.76
2018-10-12T03:05:19.359Z,16.67
2018-10-12T03:06:19.288Z,16.71
2018-10-12T03:07:19.214Z,16.64
2018-10-12T03:08:19.140Z,16.67
2018-10-12T03:09:19.066Z,16.75
2018-10-12T03:10:18.998Z,16.73
2018-10-12T03:11:18.920Z,16.64
2018-10-12T03:12:18.848Z,16.70
2018-10-12T03:13:18.774Z,16.68
2018-10-12T03:14:18.700Z,16.73
2018-10-12T03:15:18.635Z,16.70
2018-10-12T03:16:18.559Z,16.73
2018-10-12T03:17:18.480Z,16.79
2018-10-12T03:18:18.408Z,16.73
2018-10-12T03:19:18.332Z,16.75
2018-10-12T03:20:18.265Z,16.79
2018-10-12T03:21:18.187Z,16.75
2018-10-12T03:22:18.116Z,16.78
2018-10-12T03:23:18.040Z,16.78
2018-10-12T03:24:17.967Z,16.73
2018-10-12T03:25:17.896Z,16.79
2018-10-12T03:26:17.821Z,16.82
2018-10-12T03:27:17.747Z,16.82
2018-10-12T03:28:17.672Z,16.79
2018-10-12T03:29:17.607Z,16.82
2018-10-12T03:30:17.540Z,16.71
2018-10-12T03:31:17.460Z,16.68
2018-10-12T03:32:17.380Z,16.71
2018-10-12T03:33:17.307Z,16.70
2018-10-12T03:34:17.238Z,16.71
2018-10-12T03:35:17.160Z,16.67
2018-10-12T03:36:17.089Z,16.67
2018-10-12T03:37:17.076Z,16.68
2018-10-12T03:38:16.942Z,16.61
2018-10-12T03:39:16.867Z,16.67
2018-10-12T03:40:16.794Z,16.60
2018-10-12T03:41:16.726Z,16.63
2018-10-12T03:42:16.650Z,16.66
2018-10-12T03:43:16.576Z,16.70
2018-10-12T03:44:16.502Z,16.67
2018-10-12T03:45:16.432Z,16.75
2018-10-12T03:46:16.357Z,16.67
2018-10-12T03:47:16.280Z,16.68
2018-10-12T03:48:16.209Z,16.73
2018-10-12T03:49:16.138Z,16.71
2018-10-12T03:50:16.069Z,16.76
2018-10-12T03:51:15.989Z,16.71
2018-10-12T03:52:15.912Z,16.70
2018-10-12T03:53:15.847Z,16.83
2018-10-12T03:54:15.769Z,16.81
2018-10-12T03:55:15.695Z,16.76
2018-10-12T03:56:15.623Z,16.67
2018-10-12T03:57:15.553Z,16.71
2018-10-12T03:58:15.477Z,16.68
2018-10-12T03:59:15.407Z,16.73
2018-10-12T04:00:15.333Z,16.70
2018-10-12T04:01:15.258Z,16.71
2018-10-12T04:02:15.187Z,16.76
2018-10-12T04:03:15.110Z,16.70
2018-10-12T04:04:15.036Z,16.73
2018-10-12T04:05:14.963Z,16.75
2018-10-12T04:06:14.892Z,16.67
2018-10-12T04:07:14.829Z,16.76
2018-10-12T04:08:14.750Z,16.71
2018-10-12T04:09:14.672Z,16.73
2018-10-12T04:10:14.600Z,16.76
2018-10-12T04:11:14.525Z,16.79
2018-10-12T04:12:14.453Z,16.75
2018-10-12T04:13:14.380Z,16.86
2018-10-12T04:14:14.307Z,16.81
2018-10-12T04:15:14.232Z,16.86
2018-10-12T04:16:14.158Z,16.94
2018-10-12T04:17:14.084Z,16.89
2018-10-12T04:18:14.016Z,16.94
2018-10-12T04:19:13.941Z,16.89
2018-10-12T04:20:13.865Z,16.89
2018-10-12T04:21:13.792Z,16.93
2018-10-12T04:22:13.767Z,16.91
2018-10-12T04:23:13.647Z,16.98
2018-10-12T04:24:13.575Z,17.03
2018-10-12T04:25:13.497Z,17.01
2018-10-12T04:26:13.428Z,17.08
2018-10-12T04:27:13.353Z,17.04
2018-10-12T04:28:13.287Z,17.03
2018-10-12T04:29:13.208Z,17.04
2018-10-12T04:30:13.136Z,17.12
2018-10-12T04:31:13.061Z,17.14
2018-10-12T04:32:12.988Z,17.14
2018-10-12T04:33:12.914Z,17.26
2018-10-12T04:34:12.841Z,17.14
2018-10-12T04:35:12.767Z,17.26
2018-10-12T04:36:12.694Z,17.23
2018-10-12T04:37:12.628Z,17.25
2018-10-12T04:38:12.546Z,17.25
2018-10-12T04:39:12.476Z,17.22
2018-10-12T04:40:12.402Z,17.30
2018-10-12T04:41:12.330Z,17.19
2018-10-12T04:42:12.261Z,17.21
2018-10-12T04:43:12.183Z,17.21
2018-10-12T04:44:12.111Z,17.33
2018-10-12T04:45:12.038Z,17.28
2018-10-12T04:46:11.964Z,17.31
2018-10-12T04:47:11.968Z,17.33
2018-10-12T04:48:11.819Z,17.37
2018-10-12T04:49:11.748Z,17.40
2018-10-12T04:50:11.673Z,17.34
2018-10-12T04:51:11.599Z,17.33
2018-10-12T04:52:11.528Z,17.31
2018-10-12T04:53:11.454Z,17.33
2018-10-12T04:54:11.380Z,17.36
2018-10-12T04:55:11.314Z,17.34
2018-10-12T04:56:11.236Z,17.30
2018-10-12T04:57:11.163Z,17.31
2018-10-12T04:58:11.090Z,17.30
2018-10-12T04:59:11.018Z,17.33
2018-10-12T05:00:10.947Z,17.36
2018-10-12T05:01:10.957Z,17.31
2018-10-12T05:02:10.798Z,17.38
2018-10-12T05:03:10.732Z,17.36
2018-10-12T05:04:10.654Z,17.37
2018-10-12T05:05:10.580Z,17.37
2018-10-12T05:06:10.507Z,17.40
2018-10-12T05:07:10.433Z,17.38
2018-10-12T05:08:10.361Z,17.48
2018-10-12T05:09:10.291Z,17.38
2018-10-12T05:10:10.212Z,17.41
2018-10-12T05:11:10.144Z,17.51
2018-10-12T05:12:10.070Z,17.46
2018-10-12T05:13:10.004Z,17.48
2018-10-12T05:14:09.927Z,17.43
2018-10-12T05:15:09.856Z,17.48
2018-10-12T05:16:09.779Z,17.46
2018-10-12T05:17:09.707Z,17.44
2018-10-12T05:18:09.633Z,17.41
2018-10-12T05:19:09.558Z,17.43
2018-10-12T05:20:09.489Z,17.51
2018-10-12T05:21:09.421Z,17.46
2018-10-12T05:22:09.426Z,17.48
2018-10-12T05:23:09.271Z,17.51
2018-10-12T05:24:09.196Z,17.49
2018-10-12T05:25:09.122Z,17.46
2018-10-12T05:26:09.050Z,17.51
2018-10-12T05:27:08.978Z,17.43
2018-10-12T05:28:08.905Z,17.48
2018-10-12T05:29:08.832Z,17.48
2018-10-12T05:30:08.813Z,17.41
2018-10-12T05:31:08.687Z,17.44
2018-10-12T05:32:08.617Z,17.48
2018-10-12T05:33:08.543Z,17.41
2018-10-12T05:34:08.470Z,17.40
2018-10-12T05:35:08.400Z,17.41
2018-10-12T05:36:08.421Z,17.40
2018-10-12T05:37:08.251Z,17.37
2018-10-12T05:38:08.178Z,17.40
2018-10-12T05:39:08.106Z,17.40
2018-10-12T05:40:08.038Z,17.33
2018-10-12T05:41:07.961Z,17.28
2018-10-12T05:42:07.888Z,17.34
2018-10-12T05:43:07.881Z,17.37
2018-10-12T05:44:07.743Z,17.31
2018-10-12T05:45:07.671Z,17.31
2018-10-12T05:46:07.596Z,17.31
2018-10-12T05:47:07.519Z,17.36
2018-10-12T05:48:07.453Z,17.37
2018-10-12T05:49:07.378Z,17.23
2018-10-12T05:50:07.305Z,17.36
2018-10-12T05:51:07.235Z,17.21
2018-10-12T05:52:07.162Z,17.28
2018-10-12T05:53:07.086Z,17.19
2018-10-12T05:54:07.015Z,17.33
2018-10-12T05:55:06.942Z,17.19
2018-10-12T05:56:06.868Z,17.18
2018-10-12T05:57:06.795Z,17.33
2018-10-12T05:58:06.721Z,17.30
2018-10-12T05:59:06.649Z,17.15
2018-10-12T06:00:06.580Z,17.25
2018-10-12T06:01:06.514Z,17.34
2018-10-12T06:02:06.430Z,17.22
2018-10-12T06:03:06.357Z,17.31
2018-10-12T06:04:06.284Z,17.22
2018-10-12T06:05:06.211Z,17.19
2018-10-12T06:06:06.140Z,17.26
2018-10-12T06:07:06.068Z,17.23
2018-10-12T06:08:06.004Z,17.23
2018-10-12T06:09:05.921Z,17.31
2018-10-12T06:10:05.910Z,17.22
2018-10-12T06:11:05.774Z,17.22
2018-10-12T06:12:05.701Z,17.33
2018-10-12T06:13:05.632Z,17.22
2018-10-12T06:14:05.555Z,17.33
2018-10-12T06:15:05.481Z,17.36
2018-10-12T06:16:05.411Z,17.36
2018-10-12T06:17:05.336Z,17.18
2018-10-12T06:18:05.264Z,17.22
2018-10-12T06:19:05.192Z,17.30
2018-10-12T06:20:05.119Z,17.31
2018-10-12T06:21:05.045Z,17.33
2018-10-12T06:22:04.971Z,17.28
2018-10-12T06:23:04.897Z,17.38
2018-10-12T06:24:04.827Z,17.46
2018-10-12T06:25:04.756Z,17.46
2018-10-12T06:26:04.680Z,17.52
2018-10-12T06:27:04.623Z,17.54
2018-10-12T06:28:04.536Z,17.62
2018-10-12T06:29:04.469Z,17.71
2018-10-12T06:30:04.389Z,17.74
2018-10-12T06:31:04.318Z,17.75
2018-10-12T06:32:04.255Z,17.75
2018-10-12T06:33:04.207Z,17.84
2018-10-12T06:34:04.101Z,17.92
2018-10-12T06:35:04.033Z,17.97
2018-10-12T06:36:03.957Z,17.95
2018-10-12T06:37:03.878Z,17.95
2018-10-12T06:38:03.816Z,17.92
2018-10-12T06:39:03.736Z,17.96
2018-10-12T06:40:03.662Z,17.93
2018-10-12T06:41:03.686Z,17.97
2018-10-12T06:42:03.515Z,18.11
2018-10-12T06:43:03.451Z,18.18
2018-10-12T06:44:03.371Z,18.11
2018-10-12T06:45:03.299Z,18.17
2018-10-12T06:46:03.224Z,18.11
2018-10-12T06:47:03.154Z,18.15
2018-10-12T06:48:03.084Z,18.00
2018-10-12T06:49:03.009Z,18.07
2018-10-12T06:50:02.938Z,18.05
2018-10-12T06:51:02.863Z,18.02
2018-10-12T06:52:02.789Z,18.03
2018-10-12T06:53:02.718Z,18.00
2018-10-12T06:54:02.716Z,18.02
2018-10-12T06:55:02.578Z,18.02
2018-10-12T06:56:02.503Z,17.96
2018-10-12T06:57:02.429Z,18.07
2018-10-12T06:58:02.356Z,18.00
2018-10-12T06:59:02.285Z,17.97
2018-10-12T07:00:02.310Z,18.08
2018-10-12T07:01:02.139Z,17.95
2018-10-12T07:02:02.071Z,17.96
2018-10-12T07:03:01.993Z,17.96
2018-10-12T07:04:01.923Z,17.90
2018-10-12T07:05:01.851Z,18.07
2018-10-12T07:06:01.777Z,18.05
2018-10-12T07:07:01.705Z,17.96
2018-10-12T07:08:01.678Z,18.07
2018-10-12T07:09:01.559Z,18.14
2018-10-12T07:10:01.490Z,18.15
2018-10-12T07:11:01.414Z,18.11
2018-10-12T07:12:01.344Z,18.18
2018-10-12T07:13:01.274Z,18.23
2018-10-12T07:14:01.200Z,18.29
2018-10-12T07:15:01.126Z,18.35
2018-10-12T07:16:01.054Z,18.26
2018-10-12T07:17:00.983Z,18.33
2018-10-12T07:18:00.911Z,18.33
2018-10-12T07:19:00.838Z,18.36
2018-10-12T07:20:00.765Z,18.37
2018-10-12T07:21:00.687Z,18.39
2018-10-12T07:22:00.621Z,18.44
2018-10-12T07:23:00.550Z,18.37
2018-10-12T07:24:00.470Z,18.37
2018-10-12T07:25:00.411Z,18.39
2018-10-12T07:26:00.413Z,18.37
2018-10-12T07:27:00.259Z,18.37
2018-10-12T07:28:00.189Z,18.37
2018-10-12T07:29:00.115Z,18.42
2018-10-12T07:30:00.044Z,18.41
2018-10-12T07:30:59.971Z,18.36
2018-10-12T07:31:59.901Z,18.37
2018-10-12T07:32:59.826Z,18.45
2018-10-12T07:33:59.753Z,18.41
2018-10-12T07:34:59.681Z,18.36
2018-10-12T07:35:59.611Z,18.44
2018-10-12T07:36:59.564Z,18.39
2018-10-12T07:37:59.467Z,18.54
2018-10-12T07:38:59.397Z,18.52
2018-10-12T07:39:59.326Z,18.50
2018-10-12T07:40:59.252Z,18.55
2018-10-12T07:41:59.179Z,18.55
2018-10-12T07:42:59.107Z,18.58
2018-10-12T07:43:59.035Z,18.67
2018-10-12T07:44:58.961Z,18.73
2018-10-12T07:45:58.887Z,18.69
2018-10-12T07:46:58.819Z,18.73
2018-10-12T07:47:58.806Z,18.75
2018-10-12T07:48:58.673Z,18.80
2018-10-12T07:49:58.606Z,18.75
2018-10-12T07:50:58.529Z,18.72
2018-10-12T07:51:58.459Z,18.70
2018-10-12T07:52:58.385Z,18.76
2018-10-12T07:53:58.320Z,18.70
2018-10-12T07:54:58.241Z,18.80
2018-10-12T07:55:58.168Z,18.82
2018-10-12T07:56:58.097Z,18.88
2018-10-12T07:57:58.122Z,18.91
2018-10-12T07:58:57.953Z,19.00
2018-10-12T07:59:57.935Z,18.94
2018-10-12T08:00:57.811Z,19.07
2018-10-12T08:01:57.741Z,18.91
2018-10-12T08:02:57.666Z,19.02
2018-10-12T08:03:57.595Z,19.07
2018-10-12T08:04:57.524Z,19.06
2018-10-12T08:05:57.452Z,19.14
2018-10-12T08:06:57.380Z,19.10
2018-10-12T08:07:57.309Z,19.14
2018-10-12T08:08:57.240Z,19.23
2018-10-12T08:09:57.168Z,19.18
2018-10-12T08:10:57.095Z,19.18
2018-10-12T08:11:57.021Z,19.25
2018-10-12T08:12:56.949Z,19.29
2018-10-12T08:13:56.993Z,19.33
2018-10-12T08:14:56.806Z,19.29
2018-10-12T08:15:56.732Z,19.32
2018-10-12T08:16:56.675Z,19.31
2018-10-12T08:17:56.589Z,19.40
2018-10-12T08:18:56.521Z,19.36
2018-10-12T08:19:56.449Z,19.39
2018-10-12T08:20:56.380Z,19.40
2018-10-12T08:21:56.306Z,19.50
2018-10-12T08:22:56.236Z,19.51
2018-10-12T08:23:56.164Z,19.61
2018-10-12T08:24:56.094Z,19.62
2018-10-12T08:25:56.020Z,19.61
2018-10-12T08:26:56.001Z,19.73
2018-10-12T08:27:55.878Z,19.76
2018-10-12T08:28:55.808Z,19.77
2018-10-12T08:29:55.739Z,19.83
2018-10-12T08:30:55.664Z,19.87
2018-10-12T08:31:55.598Z,19.87
2018-10-12T08:32:55.540Z,19.99
2018-10-12T08:33:55.452Z,19.99
2018-10-12T08:34:55.380Z,20.16
2018-10-12T08:35:55.308Z,20.23
2018-10-12T08:36:55.240Z,20.21
2018-10-12T08:37:55.168Z,20.24
2018-10-12T08:38:55.096Z,20.39
2018-10-12T08:39:55.025Z,20.41
2018-10-12T08:40:54.954Z,20.43
2018-10-12T08:41:54.936Z,20.41
2018-10-12T08:42:54.813Z,20.54
2018-10-12T08:43:54.741Z,20.52
2018-10-12T08:44:54.670Z,20.57
2018-10-12T08:45:54.600Z,20.62
2018-10-12T08:46:54.529Z,20.62
2018-10-12T08:47:54.460Z,20.62
2018-10-12T08:48:54.387Z,20.64
2018-10-12T08:49:54.317Z,20.74
2018-10-12T08:50:54.246Z,20.73
2018-10-12T08:51:54.178Z,20.69
2018-10-12T08:52:54.105Z,20.70
2018-10-12T08:53:54.036Z,20.72
2018-10-12T08:54:53.963Z,20.79
2018-10-12T08:55:53.926Z,20.82
2018-10-12T08:56:53.823Z,20.91
2018-10-12T08:57:53.757Z,20.85
2018-10-12T08:58:53.684Z,20.84
2018-10-12T08:59:53.613Z,20.84
2018-10-12T09:00:53.545Z,20.87
2018-10-12T09:01:53.472Z,20.91
2018-10-12T09:02:53.460Z,20.82
2018-10-12T09:03:53.333Z,20.84
2018-10-12T09:04:53.260Z,20.82
2018-10-12T09:05:53.196Z,20.82
2018-10-12T09:06:53.116Z,20.88
2018-10-12T09:07:53.051Z,20.94
2018-10-12T09:08:52.980Z,20.89
2018-10-12T09:09:52.945Z,20.95
2018-10-12T09:10:52.840Z,21.10
2018-10-12T09:11:52.769Z,21.07
2018-10-12T09:12:52.699Z,21.04
2018-10-12T09:13:52.628Z,21.06
2018-10-12T09:14:52.558Z,21.14
2018-10-12T09:15:52.488Z,21.04
2018-10-12T09:16:52.421Z,21.19
2018-10-12T09:17:52.362Z,21.09
2018-10-12T09:18:52.278Z,21.22
2018-10-12T09:19:52.213Z,21.32
2018-10-12T09:20:52.213Z,21.29
2018-10-12T09:21:52.115Z,21.28
2018-10-12T09:22:51.999Z,21.25
2018-10-12T09:23:51.929Z,21.29
2018-10-12T09:24:51.859Z,21.28
2018-10-12T09:25:51.790Z,21.42
2018-10-12T09:26:51.720Z,21.40
2018-10-12T09:27:51.649Z,21.43
2018-10-12T09:28:51.578Z,21.49
2018-10-12T09:29:51.514Z,21.46
2018-10-12T09:30:51.442Z,21.56
2018-10-12T09:31:51.371Z,21.58
2018-10-12T09:32:51.299Z,21.61
2018-10-12T09:33:51.233Z,21.68
2018-10-12T09:34:51.159Z,21.79
2018-10-12T09:35:51.093Z,21.72
2018-10-12T09:36:51.053Z,21.79
2018-10-12T09:37:50.952Z,21.84
2018-10-12T09:38:50.883Z,21.80
2018-10-12T09:39:50.811Z,21.69
2018-10-12T09:40:50.744Z,21.79
2018-10-12T09:41:50.674Z,21.80
2018-10-12T09:42:50.602Z,21.83
2018-10-12T09:43:50.532Z,21.94
2018-10-12T09:44:50.471Z,21.98
2018-10-12T09:45:50.398Z,21.99
2018-10-12T09:46:50.328Z,22.07
2018-10-12T09:47:50.266Z,22.02
2018-10-12T09:48:50.187Z,22.02
2018-10-12T09:49:50.118Z,21.92
2018-10-12T09:50:50.048Z,22.00
2018-10-12T09:51:49.980Z,22.07
2018-10-12T09:52:49.954Z,22.15
2018-10-12T09:53:49.841Z,22.24
2018-10-12T09:54:49.770Z,22.17
2018-10-12T09:55:49.728Z,22.17
2018-10-12T09:56:49.630Z,22.22
2018-10-12T09:57:49.564Z,22.24
2018-10-12T09:58:49.490Z,22.27
2018-10-12T09:59:49.425Z,22.28
2018-10-12T10:00:49.353Z,22.36
2018-10-12T10:01:49.337Z,22.39
2018-10-12T10:02:49.224Z,22.43
2018-10-12T10:03:49.145Z,22.43
2018-10-12T10:04:49.077Z,22.54
2018-10-12T10:05:49.008Z,22.47
2018-10-12T10:06:48.955Z,22.54
2018-10-12T10:07:49.068Z,22.64
2018-10-12T10:08:48.925Z,22.60
2018-10-12T10:09:48.730Z,22.61
2018-10-12T10:10:48.664Z,22.57
2018-10-12T10:11:48.594Z,22.55
2018-10-12T10:12:48.527Z,22.52
2018-10-12T10:13:48.505Z,22.51
2018-10-12T10:14:48.384Z,22.60
2018-10-12T10:15:48.316Z,22.55
2018-10-12T10:16:48.246Z,22.62
2018-10-12T10:17:48.177Z,22.68
2018-10-12T10:18:48.109Z,22.72
2018-10-12T10:19:48.037Z,22.73
2018-10-12T10:20:47.969Z,22.91
2018-10-12T10:21:47.905Z,23.13
2018-10-12T10:22:47.846Z,23.12
2018-10-12T10:23:47.763Z,23.12
2018-10-12T10:24:47.696Z,23.17
2018-10-12T10:25:47.626Z,23.19
2018-10-12T10:26:47.554Z,23.23
2018-10-12T10:27:47.485Z,23.17
2018-10-12T10:28:47.419Z,23.32
2018-10-12T10:29:47.350Z,23.20
2018-10-12T10:30:47.279Z,23.31
2018-10-12T10:31:47.215Z,23.33
2018-10-12T10:32:47.143Z,23.36
2018-10-12T10:33:47.076Z,23.47
2018-10-12T10:34:47.004Z,23.51
2018-10-12T10:35:46.935Z,23.51
2018-10-12T10:36:46.868Z,23.58
2018-10-12T10:37:46.800Z,23.78
2018-10-12T10:38:46.733Z,23.79
2018-10-12T10:39:46.663Z,23.91
2018-10-12T10:40:46.592Z,23.93
2018-10-12T10:41:46.526Z,23.95
2018-10-12T10:42:46.456Z,24.03
2018-10-12T10:43:46.386Z,24.12
2018-10-12T10:44:46.318Z,24.22
2018-10-12T10:45:46.246Z,24.18
2018-10-12T10:46:46.194Z,24.25
2018-10-12T10:47:46.112Z,24.25
2018-10-12T10:48:46.045Z,24.35
2018-10-12T10:49:45.976Z,24.46
2018-10-12T10:50:45.906Z,24.58
2018-10-12T10:51:45.839Z,24.62
2018-10-12T10:52:45.773Z,24.65
2018-10-12T10:53:45.801Z,24.65
2018-10-12T10:54:45.636Z,24.76
2018-10-12T10:55:45.566Z,24.71
2018-10-12T10:56:45.500Z,24.73
2018-10-12T10:57:45.430Z,24.73
2018-10-12T10:58:45.359Z,24.91
2018-10-12T10:59:45.298Z,24.91
2018-10-12T11:00:45.235Z,24.99
2018-10-12T11:01:45.156Z,24.99
2018-10-12T11:02:45.089Z,25.00
2018-10-12T11:03:45.020Z,25.13
2018-10-12T11:04:44.950Z,25.15
2018-10-12T11:05:44.893Z,25.20
2018-10-12T11:06:44.817Z,25.24
2018-10-12T11:07:44.746Z,25.39
2018-10-12T11:08:44.681Z,25.28
2018-10-12T11:09:44.611Z,25.32
2018-10-12T11:10:44.548Z,25.35
2018-10-12T11:11:44.475Z,25.45
2018-10-12T11:12:44.478Z,25.47
2018-10-12T11:13:44.339Z,25.54
2018-10-12T11:14:44.269Z,25.58
2018-10-12T11:15:44.204Z,25.69
2018-10-12T11:16:44.137Z,25.87
2018-10-12T11:17:44.068Z,25.79
2018-10-12T11:18:43.999Z,25.92
2018-10-12T11:19:43.952Z,25.90
2018-10-12T11:20:43.866Z,25.97
2018-10-12T11:21:43.797Z,25.91
2018-10-12T11:22:43.726Z,25.98
2018-10-12T11:23:43.664Z,25.98
2018-10-12T11:24:43.619Z,26.07
2018-10-12T11:25:43.530Z,26.09
2018-10-12T11:26:43.474Z,26.15
2018-10-12T11:27:43.398Z,26.10
2018-10-12T11:28:43.325Z,26.17
2018-10-12T11:29:43.257Z,26.10
2018-10-12T11:30:43.192Z,26.17
2018-10-12T11:31:43.122Z,26.17
2018-10-12T11:32:43.078Z,26.37
2018-10-12T11:33:42.989Z,26.54
2018-10-12T11:34:42.920Z,26.60
2018-10-12T11:35:42.854Z,26.67
2018-10-12T11:36:42.788Z,26.54
2018-10-12T11:37:42.721Z,26.40
2018-10-12T11:38:42.653Z,26.36
2018-10-12T11:39:42.588Z,26.40
2018-10-12T11:40:42.520Z,26.48
2018-10-12T11:41:42.454Z,26.52
2018-10-12T11:42:42.386Z,26.48
2018-10-12T11:43:42.320Z,26.63
2018-10-12T11:44:42.298Z,26.80
2018-10-12T11:45:42.186Z,26.80
2018-10-12T11:46:42.122Z,26.77
2018-10-12T11:47:42.057Z,26.77
2018-10-12T11:48:41.989Z,26.70
2018-10-12T11:49:41.922Z,26.63
2018-10-12T11:50:41.855Z,26.67
2018-10-12T11:51:41.784Z,26.69
2018-10-12T11:52:41.725Z,26.66
2018-10-12T11:53:41.654Z,26.57
2018-10-12T11:54:41.591Z,26.70
2018-10-12T11:55:41.525Z,26.88
2018-10-12T11:56:41.455Z,27.13
2018-10-12T11:57:41.395Z,27.29
2018-10-12T11:58:41.322Z,27.49
2018-10-12T11:59:41.258Z,27.67
2018-10-12T12:00:41.193Z,27.66
2018-10-12T12:01:41.126Z,27.67
2018-10-12T12:02:41.059Z,27.44
2018-10-12T12:03:40.996Z,27.31
2018-10-12T12:04:40.928Z,27.06
2018-10-12T12:05:40.862Z,26.87
2018-10-12T12:06:40.796Z,26.73
2018-10-12T12:07:40.730Z,26.69
2018-10-12T12:08:40.666Z,26.62
2018-10-12T12:09:40.601Z,26.51
2018-10-12T12:10:40.536Z,26.51
2018-10-12T12:11:40.467Z,26.63
2018-10-12T12:12:40.403Z,26.66
2018-10-12T12:13:40.367Z,26.52
2018-10-12T12:14:40.276Z,26.48
2018-10-12T12:15:40.205Z,26.50
2018-10-12T12:16:40.141Z,26.43
2018-10-12T12:17:40.076Z,26.37
2018-10-12T12:18:40.008Z,26.37
2018-10-12T12:19:39.961Z,26.39
2018-10-12T12:20:39.885Z,26.35
2018-10-12T12:21:39.811Z,26.23
2018-10-12T12:22:39.743Z,26.25
2018-10-12T12:23:39.682Z,26.33
2018-10-12T12:24:39.615Z,26.36
2018-10-12T12:25:39.544Z,26.47
2018-10-12T12:26:39.478Z,26.45
2018-10-12T12:27:39.413Z,26.52
2018-10-12T12:28:39.345Z,26.44
2018-10-12T12:29:39.281Z,26.48
2018-10-12T12:30:39.212Z,26.66
2018-10-12T12:31:39.164Z,26.60
2018-10-12T12:32:39.081Z,26.66
2018-10-12T12:33:39.017Z,26.66
2018-10-12T12:34:39.029Z,26.75
2018-10-12T12:35:39.214Z,26.66
2018-10-12T12:36:38.816Z,26.52
2018-10-12T12:37:38.749Z,26.54
2018-10-12T12:38:38.683Z,26.50
2018-10-12T12:39:38.617Z,26.57
2018-10-12T12:40:38.551Z,26.63
2018-10-12T12:41:38.545Z,26.66
2018-10-12T12:42:38.417Z,26.73
2018-10-12T12:43:38.356Z,26.72
2018-10-12T12:44:38.279Z,26.62
2018-10-12T12:45:38.218Z,26.63
2018-10-12T12:46:38.151Z,26.75
2018-10-12T12:47:38.176Z,26.72
2018-10-12T12:48:38.334Z,26.80
2018-10-12T12:49:37.952Z,26.77
2018-10-12T12:50:37.887Z,26.82
2018-10-12T12:51:37.820Z,26.87